sensor_id;sensor_type;location;lat;lon;timestamp;temperature;humidity
7362;DHT22;3721;44.490;11.220;2022-09-09T00:04:41;24.50;92.30
7362;DHT22;3721;44.490;11.220;2022-09-09T00:07:27;24.50;92.30
7362;DHT22;3721;44.490;11.220;2022-09-09T00:13:19;24.50;91.90
7362;DHT22;3721;44.490;11.220;2022-09-09T00:21:11;24.40;92.00
7362;DHT22;3721;44.490;11.220;2022-09-09T00:23:40;24.40;92.10
7362;DHT22;3721;44.490;11.220;2022-09-09T00:26:43;24.30;92.10
7362;DHT22;3721;44.490;11.220;2022-09-09T00:29:26;24.20;92.10
7362;DHT22;3721;44.490;11.220;2022-09-09T00:32:00;24.20;92.10
7362;DHT22;3721;44.490;11.220;2022-09-09T00:34:30;24.20;92.10
7362;DHT22;3721;44.490;11.220;2022-09-09T00:36:57;24.20;92.10
7362;DHT22;3721;44.490;11.220;2022-09-09T00:39:42;24.10;92.00
7362;DHT22;3721;44.490;11.220;2022-09-09T00:42:16;24.10;92.00
7362;DHT22;3721;44.490;11.220;2022-09-09T00:44:59;24.10;92.00
7362;DHT22;3721;44.490;11.220;2022-09-09T00:47:51;24.00;91.90
7362;DHT22;3721;44.490;11.220;2022-09-09T00:58:08;23.90;91.70
7362;DHT22;3721;44.490;11.220;2022-09-09T01:00:58;23.80;91.70
7362;DHT22;3721;44.490;11.220;2022-09-09T01:03:53;23.80;91.70
7362;DHT22;3721;44.490;11.220;2022-09-09T01:06:30;23.70;91.70
7362;DHT22;3721;44.490;11.220;2022-09-09T01:09:37;23.70;91.80
7362;DHT22;3721;44.490;11.220;2022-09-09T01:12:15;23.70;91.90
7362;DHT22;3721;44.490;11.220;2022-09-09T01:14:47;23.60;91.70
7362;DHT22;3721;44.490;11.220;2022-09-09T01:17:30;23.60;91.70
7362;DHT22;3721;44.490;11.220;2022-09-09T01:20:17;23.50;91.70
7362;DHT22;3721;44.490;11.220;2022-09-09T01:27:38;23.40;91.80
7362;DHT22;3721;44.490;11.220;2022-09-09T01:30:13;23.40;91.80
7362;DHT22;3721;44.490;11.220;2022-09-09T01:32:49;23.40;91.80
7362;DHT22;3721;44.490;11.220;2022-09-09T01:35:40;23.30;91.80
7362;DHT22;3721;44.490;11.220;2022-09-09T01:38:09;23.30;91.70
7362;DHT22;3721;44.490;11.220;2022-09-09T01:40:36;23.30;91.70
7362;DHT22;3721;44.490;11.220;2022-09-09T01:43:02;23.30;91.60
7362;DHT22;3721;44.490;11.220;2022-09-09T01:45:28;23.30;91.70
7362;DHT22;3721;44.490;11.220;2022-09-09T01:47:54;23.20;91.70
7362;DHT22;3721;44.490;11.220;2022-09-09T01:50:20;23.20;91.80
7362;DHT22;3721;44.490;11.220;2022-09-09T01:52:49;23.10;91.90
7362;DHT22;3721;44.490;11.220;2022-09-09T01:55:16;23.10;92.00
7362;DHT22;3721;44.490;11.220;2022-09-09T02:01:26;23.10;92.60
7362;DHT22;3721;44.490;11.220;2022-09-09T02:03:52;23.10;92.60
7362;DHT22;3721;44.490;11.220;2022-09-09T02:06:32;23.10;92.20
7362;DHT22;3721;44.490;11.220;2022-09-09T02:09:02;23.10;92.50
7362;DHT22;3721;44.490;11.220;2022-09-09T02:11:29;23.00;92.20
7362;DHT22;3721;44.490;11.220;2022-09-09T02:14:17;23.00;92.20
7362;DHT22;3721;44.490;11.220;2022-09-09T02:16:48;22.90;92.10
7362;DHT22;3721;44.490;11.220;2022-09-09T02:19:25;22.90;92.10
7362;DHT22;3721;44.490;11.220;2022-09-09T02:21:55;22.80;92.00
7362;DHT22;3721;44.490;11.220;2022-09-09T02:24:22;22.80;92.10
7362;DHT22;3721;44.490;11.220;2022-09-09T02:26:51;22.80;92.20
7362;DHT22;3721;44.490;11.220;2022-09-09T02:29:21;22.80;92.20
7362;DHT22;3721;44.490;11.220;2022-09-09T02:31:49;22.70;91.90
7362;DHT22;3721;44.490;11.220;2022-09-09T02:34:18;22.70;92.20
7362;DHT22;3721;44.490;11.220;2022-09-09T02:36:46;22.70;92.10
7362;DHT22;3721;44.490;11.220;2022-09-09T02:39:13;22.60;92.10
7362;DHT22;3721;44.490;11.220;2022-09-09T02:41:40;22.60;92.10
7362;DHT22;3721;44.490;11.220;2022-09-09T02:44:14;22.50;91.90
7362;DHT22;3721;44.490;11.220;2022-09-09T02:49:27;22.50;92.20
7362;DHT22;3721;44.490;11.220;2022-09-09T02:52:06;22.50;92.20
7362;DHT22;3721;44.490;11.220;2022-09-09T02:54:34;22.50;92.00
7362;DHT22;3721;44.490;11.220;2022-09-09T02:57:17;22.40;92.00
7362;DHT22;3721;44.490;11.220;2022-09-09T02:59:45;22.40;92.00
7362;DHT22;3721;44.490;11.220;2022-09-09T03:02:12;22.40;91.90
7362;DHT22;3721;44.490;11.220;2022-09-09T03:04:39;22.40;91.80
7362;DHT22;3721;44.490;11.220;2022-09-09T03:07:05;22.30;91.80
7362;DHT22;3721;44.490;11.220;2022-09-09T03:09:31;22.20;91.50
7362;DHT22;3721;44.490;11.220;2022-09-09T03:12:05;21.60;91.40
7362;DHT22;3721;44.490;11.220;2022-09-09T03:14:32;22.20;91.60
7362;DHT22;3721;44.490;11.220;2022-09-09T03:16:58;22.10;91.60
7362;DHT22;3721;44.490;11.220;2022-09-09T03:19:26;22.10;91.70
7362;DHT22;3721;44.490;11.220;2022-09-09T03:21:53;22.10;91.60
7362;DHT22;3721;44.490;11.220;2022-09-09T03:24:19;22.10;91.60
7362;DHT22;3721;44.490;11.220;2022-09-09T03:26:45;22.10;92.00
7362;DHT22;3721;44.490;11.220;2022-09-09T03:29:12;22.10;91.60
7362;DHT22;3721;44.490;11.220;2022-09-09T03:31:38;22.10;91.60
7362;DHT22;3721;44.490;11.220;2022-09-09T03:34:04;22.10;91.60
7362;DHT22;3721;44.490;11.220;2022-09-09T03:36:30;22.00;91.60
7362;DHT22;3721;44.490;11.220;2022-09-09T03:38:56;22.00;91.60
7362;DHT22;3721;44.490;11.220;2022-09-09T03:41:23;22.00;91.70
7362;DHT22;3721;44.490;11.220;2022-09-09T03:43:50;22.00;91.70
7362;DHT22;3721;44.490;11.220;2022-09-09T03:46:17;22.00;91.60
7362;DHT22;3721;44.490;11.220;2022-09-09T03:48:43;21.90;91.50
7362;DHT22;3721;44.490;11.220;2022-09-09T03:51:09;21.90;91.60
7362;DHT22;3721;44.490;11.220;2022-09-09T03:53:36;21.90;91.60
7362;DHT22;3721;44.490;11.220;2022-09-09T03:56:04;21.90;91.60
7362;DHT22;3721;44.490;11.220;2022-09-09T03:58:33;21.90;91.70
7362;DHT22;3721;44.490;11.220;2022-09-09T04:01:02;21.90;91.80
7362;DHT22;3721;44.490;11.220;2022-09-09T04:03:28;21.90;91.70
7362;DHT22;3721;44.490;11.220;2022-09-09T04:05:57;21.90;91.80
7362;DHT22;3721;44.490;11.220;2022-09-09T04:08:24;21.90;91.90
7362;DHT22;3721;44.490;11.220;2022-09-09T04:10:53;21.90;91.70
7362;DHT22;3721;44.490;11.220;2022-09-09T04:13:22;21.90;91.70
7362;DHT22;3721;44.490;11.220;2022-09-09T04:15:53;21.90;91.70
7362;DHT22;3721;44.490;11.220;2022-09-09T04:18:19;21.80;91.50
7362;DHT22;3721;44.490;11.220;2022-09-09T04:20:48;21.80;91.60
7362;DHT22;3721;44.490;11.220;2022-09-09T04:23:16;21.70;91.40
7362;DHT22;3721;44.490;11.220;2022-09-09T04:25:48;21.60;91.40
7362;DHT22;3721;44.490;11.220;2022-09-09T04:28:19;21.60;91.40
7362;DHT22;3721;44.490;11.220;2022-09-09T04:30:46;21.60;91.50
7362;DHT22;3721;44.490;11.220;2022-09-09T04:33:13;21.60;91.60
7362;DHT22;3721;44.490;11.220;2022-09-09T04:35:47;21.60;91.60
7362;DHT22;3721;44.490;11.220;2022-09-09T04:38:14;21.60;91.60
7362;DHT22;3721;44.490;11.220;2022-09-09T04:40:45;21.60;91.60
7362;DHT22;3721;44.490;11.220;2022-09-09T04:43:12;21.50;91.50
7362;DHT22;3721;44.490;11.220;2022-09-09T04:45:40;21.50;91.60
7362;DHT22;3721;44.490;11.220;2022-09-09T04:48:06;21.50;91.60
7362;DHT22;3721;44.490;11.220;2022-09-09T04:50:32;21.50;91.10
7362;DHT22;3721;44.490;11.220;2022-09-09T04:53:02;21.50;91.40
7362;DHT22;3721;44.490;11.220;2022-09-09T04:55:30;21.50;91.40
7362;DHT22;3721;44.490;11.220;2022-09-09T04:57:56;21.40;91.40
7362;DHT22;3721;44.490;11.220;2022-09-09T05:00:26;21.40;91.50
7362;DHT22;3721;44.490;11.220;2022-09-09T05:02:52;21.30;91.50
7362;DHT22;3721;44.490;11.220;2022-09-09T05:05:17;21.30;91.60
7362;DHT22;3721;44.490;11.220;2022-09-09T05:07:44;21.30;91.70
7362;DHT22;3721;44.490;11.220;2022-09-09T05:10:09;21.30;91.70
7362;DHT22;3721;44.490;11.220;2022-09-09T05:12:36;21.30;91.70
7362;DHT22;3721;44.490;11.220;2022-09-09T05:15:01;21.30;91.80
7362;DHT22;3721;44.490;11.220;2022-09-09T05:17:27;21.40;91.70
7362;DHT22;3721;44.490;11.220;2022-09-09T05:19:53;21.40;91.60
7362;DHT22;3721;44.490;11.220;2022-09-09T05:22:22;21.40;91.90
7362;DHT22;3721;44.490;11.220;2022-09-09T05:24:49;21.50;91.70
7362;DHT22;3721;44.490;11.220;2022-09-09T05:27:17;21.50;92.30
7362;DHT22;3721;44.490;11.220;2022-09-09T05:29:45;21.50;92.00
7362;DHT22;3721;44.490;11.220;2022-09-09T05:32:11;21.50;92.00
7362;DHT22;3721;44.490;11.220;2022-09-09T05:34:37;21.50;92.00
7362;DHT22;3721;44.490;11.220;2022-09-09T05:37:03;21.60;92.40
7362;DHT22;3721;44.490;11.220;2022-09-09T05:39:30;21.60;92.10
7362;DHT22;3721;44.490;11.220;2022-09-09T05:41:55;21.70;92.20
7362;DHT22;3721;44.490;11.220;2022-09-09T05:44:21;21.70;92.20
7362;DHT22;3721;44.490;11.220;2022-09-09T05:46:49;21.70;92.20
7362;DHT22;3721;44.490;11.220;2022-09-09T05:49:15;21.80;92.00
7362;DHT22;3721;44.490;11.220;2022-09-09T05:51:41;21.80;92.20
7362;DHT22;3721;44.490;11.220;2022-09-09T05:54:09;21.90;92.30
7362;DHT22;3721;44.490;11.220;2022-09-09T05:56:35;21.90;92.30
7362;DHT22;3721;44.490;11.220;2022-09-09T05:59:00;21.90;92.20
7362;DHT22;3721;44.490;11.220;2022-09-09T06:01:29;21.90;92.40
7362;DHT22;3721;44.490;11.220;2022-09-09T06:03:55;22.00;92.70
7362;DHT22;3721;44.490;11.220;2022-09-09T06:06:24;22.10;92.90
7362;DHT22;3721;44.490;11.220;2022-09-09T06:08:52;22.30;92.50
7362;DHT22;3721;44.490;11.220;2022-09-09T06:11:21;22.30;92.70
7362;DHT22;3721;44.490;11.220;2022-09-09T06:13:48;22.40;92.70
7362;DHT22;3721;44.490;11.220;2022-09-09T06:16:18;22.50;92.90
7362;DHT22;3721;44.490;11.220;2022-09-09T06:18:44;22.50;93.00
7362;DHT22;3721;44.490;11.220;2022-09-09T06:21:27;22.60;93.00
7362;DHT22;3721;44.490;11.220;2022-09-09T06:23:53;22.70;93.10
7362;DHT22;3721;44.490;11.220;2022-09-09T06:26:21;22.80;93.40
7362;DHT22;3721;44.490;11.220;2022-09-09T06:28:49;23.00;93.60
7362;DHT22;3721;44.490;11.220;2022-09-09T06:31:20;23.10;93.60
7362;DHT22;3721;44.490;11.220;2022-09-09T06:33:48;23.30;93.50
7362;DHT22;3721;44.490;11.220;2022-09-09T06:36:19;23.40;93.30
7362;DHT22;3721;44.490;11.220;2022-09-09T06:38:46;23.50;93.20
7362;DHT22;3721;44.490;11.220;2022-09-09T06:41:14;23.60;93.20
7362;DHT22;3721;44.490;11.220;2022-09-09T06:43:40;23.80;93.30
7362;DHT22;3721;44.490;11.220;2022-09-09T06:46:11;23.80;93.30
7362;DHT22;3721;44.490;11.220;2022-09-09T06:48:39;24.00;93.30
7362;DHT22;3721;44.490;11.220;2022-09-09T06:51:19;24.10;93.20
7362;DHT22;3721;44.490;11.220;2022-09-09T06:53:47;24.20;93.20
7362;DHT22;3721;44.490;11.220;2022-09-09T06:58:42;24.50;93.30
7362;DHT22;3721;44.490;11.220;2022-09-09T07:01:11;24.70;92.90
7362;DHT22;3721;44.490;11.220;2022-09-09T07:03:38;24.80;93.10
7362;DHT22;3721;44.490;11.220;2022-09-09T07:06:05;24.80;92.90
7362;DHT22;3721;44.490;11.220;2022-09-09T07:08:31;24.90;92.90
7362;DHT22;3721;44.490;11.220;2022-09-09T07:11:04;25.00;92.80
7362;DHT22;3721;44.490;11.220;2022-09-09T07:13:31;25.20;92.90
7362;DHT22;3721;44.490;11.220;2022-09-09T07:16:07;25.30;92.90
7362;DHT22;3721;44.490;11.220;2022-09-09T07:18:36;25.30;92.80
7362;DHT22;3721;44.490;11.220;2022-09-09T07:21:04;27.60;93.50
7362;DHT22;3721;44.490;11.220;2022-09-09T07:23:30;25.50;92.70
7362;DHT22;3721;44.490;11.220;2022-09-09T07:25:57;25.50;92.60
7362;DHT22;3721;44.490;11.220;2022-09-09T07:28:23;25.60;92.70
7362;DHT22;3721;44.490;11.220;2022-09-09T07:30:54;25.70;92.70
7362;DHT22;3721;44.490;11.220;2022-09-09T07:33:20;25.80;92.60
7362;DHT22;3721;44.490;11.220;2022-09-09T07:35:45;25.80;92.60
7362;DHT22;3721;44.490;11.220;2022-09-09T07:38:11;25.90;92.60
7362;DHT22;3721;44.490;11.220;2022-09-09T07:40:37;26.00;92.60
7362;DHT22;3721;44.490;11.220;2022-09-09T07:43:04;26.10;92.60
7362;DHT22;3721;44.490;11.220;2022-09-09T07:45:29;26.10;92.60
7362;DHT22;3721;44.490;11.220;2022-09-09T07:47:58;26.20;92.60
7362;DHT22;3721;44.490;11.220;2022-09-09T07:50:24;26.30;92.50
7362;DHT22;3721;44.490;11.220;2022-09-09T07:52:53;26.30;92.40
7362;DHT22;3721;44.490;11.220;2022-09-09T07:55:20;26.40;92.50
7362;DHT22;3721;44.490;11.220;2022-09-09T07:57:46;26.50;92.50
7362;DHT22;3721;44.490;11.220;2022-09-09T08:00:13;26.60;92.40
7362;DHT22;3721;44.490;11.220;2022-09-09T08:02:40;26.70;92.40
7362;DHT22;3721;44.490;11.220;2022-09-09T08:05:06;26.80;92.40
7362;DHT22;3721;44.490;11.220;2022-09-09T08:07:32;26.90;92.40
7362;DHT22;3721;44.490;11.220;2022-09-09T08:09:58;27.00;92.20
7362;DHT22;3721;44.490;11.220;2022-09-09T08:12:24;27.00;92.10
7362;DHT22;3721;44.490;11.220;2022-09-09T08:14:50;27.10;92.10
7362;DHT22;3721;44.490;11.220;2022-09-09T08:17:17;27.20;92.00
7362;DHT22;3721;44.490;11.220;2022-09-09T08:19:43;27.20;92.00
7362;DHT22;3721;44.490;11.220;2022-09-09T08:22:09;27.30;91.80
7362;DHT22;3721;44.490;11.220;2022-09-09T08:24:35;27.40;91.50
7362;DHT22;3721;44.490;11.220;2022-09-09T08:27:01;27.40;90.90
7362;DHT22;3721;44.490;11.220;2022-09-09T08:29:27;27.40;91.10
7362;DHT22;3721;44.490;11.220;2022-09-09T08:31:55;27.40;91.10
7362;DHT22;3721;44.490;11.220;2022-09-09T08:34:23;27.40;90.90
7362;DHT22;3721;44.490;11.220;2022-09-09T08:36:50;27.40;91.00
7362;DHT22;3721;44.490;11.220;2022-09-09T08:39:18;27.50;90.90
7362;DHT22;3721;44.490;11.220;2022-09-09T08:47:11;27.60;90.70
7362;DHT22;3721;44.490;11.220;2022-09-09T08:53:22;27.80;90.40
7362;DHT22;3721;44.490;11.220;2022-09-09T08:55:50;27.90;90.40
7362;DHT22;3721;44.490;11.220;2022-09-09T08:58:19;27.90;90.00
7362;DHT22;3721;44.490;11.220;2022-09-09T09:03:35;28.00;89.40
7362;DHT22;3721;44.490;11.220;2022-09-09T09:09:05;28.10;88.70
7362;DHT22;3721;44.490;11.220;2022-09-09T09:11:36;28.20;88.80
7362;DHT22;3721;44.490;11.220;2022-09-09T09:14:23;28.30;88.70
7362;DHT22;3721;44.490;11.220;2022-09-09T09:17:00;28.30;88.40
7362;DHT22;3721;44.490;11.220;2022-09-09T09:19:28;28.40;87.80
7362;DHT22;3721;44.490;11.220;2022-09-09T09:27:28;28.50;86.70
7362;DHT22;3721;44.490;11.220;2022-09-09T09:29:57;28.50;86.60
7362;DHT22;3721;44.490;11.220;2022-09-09T09:32:24;28.60;86.10
7362;DHT22;3721;44.490;11.220;2022-09-09T09:34:55;28.60;85.90
7362;DHT22;3721;44.490;11.220;2022-09-09T09:37:32;28.60;85.60
7362;DHT22;3721;44.490;11.220;2022-09-09T09:40:10;28.60;85.70
7362;DHT22;3721;44.490;11.220;2022-09-09T09:42:37;28.60;85.50
7362;DHT22;3721;44.490;11.220;2022-09-09T09:45:40;27.90;84.60
7362;DHT22;3721;44.490;11.220;2022-09-09T09:48:10;28.60;84.90
7362;DHT22;3721;44.490;11.220;2022-09-09T09:50:48;28.60;84.70
7362;DHT22;3721;44.490;11.220;2022-09-09T09:53:24;28.60;84.50
7362;DHT22;3721;44.490;11.220;2022-09-09T09:55:54;28.60;84.40
7362;DHT22;3721;44.490;11.220;2022-09-09T09:58:21;28.70;84.50
7362;DHT22;3721;44.490;11.220;2022-09-09T10:00:49;28.70;84.00
7362;DHT22;3721;44.490;11.220;2022-09-09T10:03:30;28.80;83.90
7362;DHT22;3721;44.490;11.220;2022-09-09T10:05:57;28.80;84.10
7362;DHT22;3721;44.490;11.220;2022-09-09T10:08:26;28.90;84.40
7362;DHT22;3721;44.490;11.220;2022-09-09T10:18:52;29.00;83.80
7362;DHT22;3721;44.490;11.220;2022-09-09T10:32:49;29.20;82.30
7362;DHT22;3721;44.490;11.220;2022-09-09T10:35:52;29.20;82.10
7362;DHT22;3721;44.490;11.220;2022-09-09T10:38:42;29.20;81.60
7362;DHT22;3721;44.490;11.220;2022-09-09T10:41:40;29.30;81.20
7362;DHT22;3721;44.490;11.220;2022-09-09T10:57:55;29.40;78.70
7362;DHT22;3721;44.490;11.220;2022-09-09T11:00:43;29.40;78.30
7362;DHT22;3721;44.490;11.220;2022-09-09T11:03:35;29.50;78.30
7362;DHT22;3721;44.490;11.220;2022-09-09T11:06:11;29.50;78.00
7362;DHT22;3721;44.490;11.220;2022-09-09T11:08:39;29.60;77.80
7362;DHT22;3721;44.490;11.220;2022-09-09T11:13:41;29.70;77.80
7362;DHT22;3721;44.490;11.220;2022-09-09T11:19:35;29.70;76.10
7362;DHT22;3721;44.490;11.220;2022-09-09T11:24:50;29.80;75.20
7362;DHT22;3721;44.490;11.220;2022-09-09T11:27:36;29.80;75.20
7362;DHT22;3721;44.490;11.220;2022-09-09T11:41:38;29.90;73.70
7362;DHT22;3721;44.490;11.220;2022-09-09T11:44:19;29.90;74.00
7362;DHT22;3721;44.490;11.220;2022-09-09T11:46:51;29.90;74.10
7362;DHT22;3721;44.490;11.220;2022-09-09T11:49:28;29.80;73.90
7362;DHT22;3721;44.490;11.220;2022-09-09T11:51:55;29.80;72.70
7362;DHT22;3721;44.490;11.220;2022-09-09T11:54:32;29.80;72.40
7362;DHT22;3721;44.490;11.220;2022-09-09T11:56:59;29.80;72.20
7362;DHT22;3721;44.490;11.220;2022-09-09T11:59:30;29.80;72.30
7362;DHT22;3721;44.490;11.220;2022-09-09T12:02:18;29.80;72.80
7362;DHT22;3721;44.490;11.220;2022-09-09T12:05:09;29.80;72.30
7362;DHT22;3721;44.490;11.220;2022-09-09T12:07:52;29.80;72.20
7362;DHT22;3721;44.490;11.220;2022-09-09T12:10:31;29.80;72.10
7362;DHT22;3721;44.490;11.220;2022-09-09T12:13:22;29.80;72.20
7362;DHT22;3721;44.490;11.220;2022-09-09T12:15:56;29.80;72.10
7362;DHT22;3721;44.490;11.220;2022-09-09T12:18:45;29.80;72.00
7362;DHT22;3721;44.490;11.220;2022-09-09T12:24:13;29.90;72.00
7362;DHT22;3721;44.490;11.220;2022-09-09T12:27:05;29.90;72.20
7362;DHT22;3721;44.490;11.220;2022-09-09T12:32:25;30.00;71.80
7362;DHT22;3721;44.490;11.220;2022-09-09T12:35:02;30.00;71.40
7362;DHT22;3721;44.490;11.220;2022-09-09T12:40:05;30.00;70.10
7362;DHT22;3721;44.490;11.220;2022-09-09T12:42:32;29.90;70.40
7362;DHT22;3721;44.490;11.220;2022-09-09T12:45:14;30.00;70.40
7362;DHT22;3721;44.490;11.220;2022-09-09T12:50:21;30.00;70.50
7362;DHT22;3721;44.490;11.220;2022-09-09T12:52:49;30.00;70.70
7362;DHT22;3721;44.490;11.220;2022-09-09T12:55:24;30.00;70.50
7362;DHT22;3721;44.490;11.220;2022-09-09T12:57:51;30.00;70.30
7362;DHT22;3721;44.490;11.220;2022-09-09T13:00:20;29.90;70.20
7362;DHT22;3721;44.490;11.220;2022-09-09T13:02:58;29.90;69.90
7362;DHT22;3721;44.490;11.220;2022-09-09T13:05:36;29.80;69.90
7362;DHT22;3721;44.490;11.220;2022-09-09T13:08:04;29.80;70.00
7362;DHT22;3721;44.490;11.220;2022-09-09T13:10:34;29.80;70.10
7362;DHT22;3721;44.490;11.220;2022-09-09T13:13:01;29.80;70.00
7362;DHT22;3721;44.490;11.220;2022-09-09T13:15:29;29.80;70.20
7362;DHT22;3721;44.490;11.220;2022-09-09T13:18:00;29.80;70.10
7362;DHT22;3721;44.490;11.220;2022-09-09T13:20:27;29.70;69.80
7362;DHT22;3721;44.490;11.220;2022-09-09T13:22:54;29.70;70.60
7362;DHT22;3721;44.490;11.220;2022-09-09T13:25:26;29.70;70.50
7362;DHT22;3721;44.490;11.220;2022-09-09T13:28:02;29.70;70.90
7362;DHT22;3721;44.490;11.220;2022-09-09T13:30:33;29.80;71.30
7362;DHT22;3721;44.490;11.220;2022-09-09T13:35:57;29.80;72.10
7362;DHT22;3721;44.490;11.220;2022-09-09T13:38:24;29.80;72.10
7362;DHT22;3721;44.490;11.220;2022-09-09T13:41:05;29.80;72.60
7362;DHT22;3721;44.490;11.220;2022-09-09T13:43:51;29.80;71.80
7362;DHT22;3721;44.490;11.220;2022-09-09T13:46:32;29.80;71.40
7362;DHT22;3721;44.490;11.220;2022-09-09T13:49:17;29.80;70.90
7362;DHT22;3721;44.490;11.220;2022-09-09T13:51:46;29.80;71.40
7362;DHT22;3721;44.490;11.220;2022-09-09T13:54:17;29.80;71.60
7362;DHT22;3721;44.490;11.220;2022-09-09T13:56:43;29.80;71.40
7362;DHT22;3721;44.490;11.220;2022-09-09T13:59:14;29.70;72.10
7362;DHT22;3721;44.490;11.220;2022-09-09T14:01:40;29.70;72.70
7362;DHT22;3721;44.490;11.220;2022-09-09T14:04:06;29.70;73.30
7362;DHT22;3721;44.490;11.220;2022-09-09T14:06:33;29.70;73.50
7362;DHT22;3721;44.490;11.220;2022-09-09T14:09:03;29.70;73.60
7362;DHT22;3721;44.490;11.220;2022-09-09T14:11:28;29.70;74.00
7362;DHT22;3721;44.490;11.220;2022-09-09T14:13:54;29.70;74.40
7362;DHT22;3721;44.490;11.220;2022-09-09T14:16:21;29.70;74.80
7362;DHT22;3721;44.490;11.220;2022-09-09T14:18:47;29.70;74.70
7362;DHT22;3721;44.490;11.220;2022-09-09T14:21:13;29.60;74.60
7362;DHT22;3721;44.490;11.220;2022-09-09T14:23:39;29.60;74.90
7362;DHT22;3721;44.490;11.220;2022-09-09T14:26:06;29.60;75.00
7362;DHT22;3721;44.490;11.220;2022-09-09T14:28:33;29.50;74.90
7362;DHT22;3721;44.490;11.220;2022-09-09T14:31:03;29.50;75.00
7362;DHT22;3721;44.490;11.220;2022-09-09T14:33:29;29.50;75.00
7362;DHT22;3721;44.490;11.220;2022-09-09T14:36:00;29.40;75.20
7362;DHT22;3721;44.490;11.220;2022-09-09T14:38:29;29.40;75.40
7362;DHT22;3721;44.490;11.220;2022-09-09T14:40:55;29.40;75.90
7362;DHT22;3721;44.490;11.220;2022-09-09T14:43:22;29.40;76.20
7362;DHT22;3721;44.490;11.220;2022-09-09T14:45:47;29.40;76.20
7362;DHT22;3721;44.490;11.220;2022-09-09T14:48:14;29.40;76.70
7362;DHT22;3721;44.490;11.220;2022-09-09T14:50:41;29.50;76.50
7362;DHT22;3721;44.490;11.220;2022-09-09T14:53:07;29.50;76.10
7362;DHT22;3721;44.490;11.220;2022-09-09T14:55:34;29.50;75.90
7362;DHT22;3721;44.490;11.220;2022-09-09T14:58:00;29.50;75.90
7362;DHT22;3721;44.490;11.220;2022-09-09T15:00:26;29.50;76.20
7362;DHT22;3721;44.490;11.220;2022-09-09T15:02:53;29.50;76.30
7362;DHT22;3721;44.490;11.220;2022-09-09T15:05:19;29.50;77.10
7362;DHT22;3721;44.490;11.220;2022-09-09T15:07:45;29.40;77.40
7362;DHT22;3721;44.490;11.220;2022-09-09T15:10:11;29.40;77.90
7362;DHT22;3721;44.490;11.220;2022-09-09T15:12:37;29.40;78.10
7362;DHT22;3721;44.490;11.220;2022-09-09T15:15:04;29.40;78.40
7362;DHT22;3721;44.490;11.220;2022-09-09T15:17:31;29.40;78.70
7362;DHT22;3721;44.490;11.220;2022-09-09T15:19:57;29.40;78.90
7362;DHT22;3721;44.490;11.220;2022-09-09T15:22:23;29.40;78.70
7362;DHT22;3721;44.490;11.220;2022-09-09T15:24:50;29.40;78.30
7362;DHT22;3721;44.490;11.220;2022-09-09T15:27:16;29.40;78.20
7362;DHT22;3721;44.490;11.220;2022-09-09T15:29:42;29.40;78.20
7362;DHT22;3721;44.490;11.220;2022-09-09T15:32:09;29.40;78.70
7362;DHT22;3721;44.490;11.220;2022-09-09T15:34:35;29.40;78.30
7362;DHT22;3721;44.490;11.220;2022-09-09T15:37:01;29.40;78.80
7362;DHT22;3721;44.490;11.220;2022-09-09T15:39:27;29.40;79.20
7362;DHT22;3721;44.490;11.220;2022-09-09T15:41:52;29.40;79.20
7362;DHT22;3721;44.490;11.220;2022-09-09T15:44:18;29.30;79.30
7362;DHT22;3721;44.490;11.220;2022-09-09T15:46:52;29.30;79.50
7362;DHT22;3721;44.490;11.220;2022-09-09T15:49:21;29.20;79.50
7362;DHT22;3721;44.490;11.220;2022-09-09T15:51:55;29.20;79.50
7362;DHT22;3721;44.490;11.220;2022-09-09T15:54:22;29.10;79.20
7362;DHT22;3721;44.490;11.220;2022-09-09T15:56:57;29.10;79.50
7362;DHT22;3721;44.490;11.220;2022-09-09T15:59:24;29.00;79.60
7362;DHT22;3721;44.490;11.220;2022-09-09T16:01:50;29.00;79.80
7362;DHT22;3721;44.490;11.220;2022-09-09T16:04:19;28.90;80.20
7362;DHT22;3721;44.490;11.220;2022-09-09T16:06:50;28.90;80.80
7362;DHT22;3721;44.490;11.220;2022-09-09T16:09:16;28.80;80.90
7362;DHT22;3721;44.490;11.220;2022-09-09T16:11:42;28.70;81.40
7362;DHT22;3721;44.490;11.220;2022-09-09T16:14:08;28.60;82.10
7362;DHT22;3721;44.490;11.220;2022-09-09T16:16:34;28.50;82.90
7362;DHT22;3721;44.490;11.220;2022-09-09T16:19:03;28.50;83.90
7362;DHT22;3721;44.490;11.220;2022-09-09T16:21:35;28.40;84.70
7362;DHT22;3721;44.490;11.220;2022-09-09T16:24:03;28.30;85.10
7362;DHT22;3721;44.490;11.220;2022-09-09T16:26:32;28.30;85.60
7362;DHT22;3721;44.490;11.220;2022-09-09T16:28:59;28.30;86.00
7362;DHT22;3721;44.490;11.220;2022-09-09T16:31:26;28.20;86.20
7362;DHT22;3721;44.490;11.220;2022-09-09T16:33:52;28.20;86.30
7362;DHT22;3721;44.490;11.220;2022-09-09T16:36:20;28.20;86.30
7362;DHT22;3721;44.490;11.220;2022-09-09T16:38:46;28.10;86.40
7362;DHT22;3721;44.490;11.220;2022-09-09T16:41:14;28.00;86.70
7362;DHT22;3721;44.490;11.220;2022-09-09T16:43:40;27.90;86.80
7362;DHT22;3721;44.490;11.220;2022-09-09T16:46:25;27.80;87.50
7362;DHT22;3721;44.490;11.220;2022-09-09T16:48:52;27.70;87.60
7362;DHT22;3721;44.490;11.220;2022-09-09T16:51:21;27.70;88.10
7362;DHT22;3721;44.490;11.220;2022-09-09T16:53:49;27.60;88.20
7362;DHT22;3721;44.490;11.220;2022-09-09T16:56:17;27.50;88.50
7362;DHT22;3721;44.490;11.220;2022-09-09T16:58:53;27.40;88.80
7362;DHT22;3721;44.490;11.220;2022-09-09T17:01:21;27.40;89.20
7362;DHT22;3721;44.490;11.220;2022-09-09T17:03:47;27.30;89.60
7362;DHT22;3721;44.490;11.220;2022-09-09T17:06:17;27.30;89.80
7362;DHT22;3721;44.490;11.220;2022-09-09T17:08:43;27.20;89.90
7362;DHT22;3721;44.490;11.220;2022-09-09T17:11:17;27.20;90.20
7362;DHT22;3721;44.490;11.220;2022-09-09T17:13:45;27.10;90.30
7362;DHT22;3721;44.490;11.220;2022-09-09T17:16:12;27.10;90.50
7362;DHT22;3721;44.490;11.220;2022-09-09T17:18:38;27.10;90.70
7362;DHT22;3721;44.490;11.220;2022-09-09T17:21:06;27.10;90.90
7362;DHT22;3721;44.490;11.220;2022-09-09T17:23:36;27.00;90.90
7362;DHT22;3721;44.490;11.220;2022-09-09T17:26:04;27.00;91.00
7362;DHT22;3721;44.490;11.220;2022-09-09T17:28:31;27.00;91.10
7362;DHT22;3721;44.490;11.220;2022-09-09T17:30:58;26.90;91.20
7362;DHT22;3721;44.490;11.220;2022-09-09T17:33:30;26.80;91.20
7362;DHT22;3721;44.490;11.220;2022-09-09T17:36:01;26.80;91.40
7362;DHT22;3721;44.490;11.220;2022-09-09T17:38:28;26.70;91.40
7362;DHT22;3721;44.490;11.220;2022-09-09T17:41:02;26.70;91.50
7362;DHT22;3721;44.490;11.220;2022-09-09T17:43:28;26.70;92.00
7362;DHT22;3721;44.490;11.220;2022-09-09T17:45:54;26.60;91.80
7362;DHT22;3721;44.490;11.220;2022-09-09T17:48:20;26.60;91.90
7362;DHT22;3721;44.490;11.220;2022-09-09T17:50:45;26.60;91.90
7362;DHT22;3721;44.490;11.220;2022-09-09T17:53:11;26.60;92.10
7362;DHT22;3721;44.490;11.220;2022-09-09T17:55:37;26.50;92.10
7362;DHT22;3721;44.490;11.220;2022-09-09T17:58:03;26.50;92.20
7362;DHT22;3721;44.490;11.220;2022-09-09T18:00:29;26.50;92.30
7362;DHT22;3721;44.490;11.220;2022-09-09T18:02:55;26.40;92.30
7362;DHT22;3721;44.490;11.220;2022-09-09T18:05:21;26.40;92.40